sensor_id;sensor_type;location;lat;lon;timestamp;pressure;altitude;pressure_sealevel;temperature;humidity
8334;BME280;4204;43.004;23.052;2023-02-12T00:00:41;94724.81;;;-4.57;100.00
8334;BME280;4204;43.004;23.052;2023-02-12T00:03:11;94730.97;;;-4.71;100.00
8334;BME280;4204;43.004;23.052;2023-02-12T00:05:39;94737.50;;;-4.95;100.00
8334;BME280;4204;43.004;23.052;2023-02-12T00:08:07;94742.69;;;-5.02;100.00
8334;BME280;4204;43.004;23.052;2023-02-12T00:10:39;94742.59;;;-5.28;100.00
8334;BME280;4204;43.004;23.052;2023-02-12T00:13:08;94745.94;;;-5.34;100.00
8334;BME280;4204;43.004;23.052;2023-02-12T00:15:38;94741.97;;;-5.23;100.00
8334;BME280;4204;43.004;23.052;2023-02-12T00:18:06;94741.03;;;-5.16;100.00
8334;BME280;4204;43.004;23.052;2023-02-12T00:20:35;94733.03;;;-5.21;100.00
8334;BME280;4204;43.004;23.052;2023-02-12T00:23:03;94727.81;;;-5.27;100.00
8334;BME280;4204;43.004;23.052;2023-02-12T00:25:31;94723.09;;;-5.11;100.00
8334;BME280;4204;43.004;23.052;2023-02-12T00:27:59;94721.97;;;-4.82;100.00
8334;BME280;4204;43.004;23.052;2023-02-12T00:30:27;94731.56;;;-4.69;100.00
8334;BME280;4204;43.004;23.052;2023-02-12T00:32:55;94718.22;;;-4.60;100.00
8334;BME280;4204;43.004;23.052;2023-02-12T00:35:22;94719.44;;;-4.56;100.00
8334;BME280;4204;43.004;23.052;2023-02-12T00:37:51;94716.78;;;-4.75;100.00
8334;BME280;4204;43.004;23.052;2023-02-12T00:40:19;94709.00;;;-4.82;100.00
8334;BME280;4204;43.004;23.052;2023-02-12T00:42:47;94714.31;;;-5.10;100.00
8334;BME280;4204;43.004;23.052;2023-02-12T00:45:15;94719.69;;;-5.18;100.00
8334;BME280;4204;43.004;23.052;2023-02-12T00:47:42;94726.63;;;-5.25;100.00
8334;BME280;4204;43.004;23.052;2023-02-12T00:50:10;94726.84;;;-5.26;100.00
8334;BME280;4204;43.004;23.052;2023-02-12T00:52:40;94730.75;;;-5.43;100.00
8334;BME280;4204;43.004;23.052;2023-02-12T00:55:09;94734.28;;;-5.57;100.00
8334;BME280;4204;43.004;23.052;2023-02-12T00:57:37;94728.56;;;-5.40;100.00
8334;BME280;4204;43.004;23.052;2023-02-12T01:00:06;94716.81;;;-5.36;100.00
8334;BME280;4204;43.004;23.052;2023-02-12T01:02:34;94725.00;;;-5.39;100.00
8334;BME280;4204;43.004;23.052;2023-02-12T01:05:04;94728.06;;;-5.63;100.00
8334;BME280;4204;43.004;23.052;2023-02-12T01:07:32;94725.84;;;-5.66;100.00
8334;BME280;4204;43.004;23.052;2023-02-12T01:09:59;94729.44;;;-5.67;100.00
8334;BME280;4204;43.004;23.052;2023-02-12T01:12:30;94720.34;;;-5.50;100.00
8334;BME280;4204;43.004;23.052;2023-02-12T01:14:58;94720.22;;;-5.35;100.00
8334;BME280;4204;43.004;23.052;2023-02-12T01:17:26;94716.56;;;-5.47;100.00
8334;BME280;4204;43.004;23.052;2023-02-12T01:19:56;94715.06;;;-5.69;100.00
8334;BME280;4204;43.004;23.052;2023-02-12T01:22:25;94709.53;;;-5.60;100.00
8334;BME280;4204;43.004;23.052;2023-02-12T01:24:53;94696.47;;;-5.39;100.00
8334;BME280;4204;43.004;23.052;2023-02-12T01:27:20;94684.56;;;-5.20;100.00
8334;BME280;4204;43.004;23.052;2023-02-12T01:29:49;94672.84;;;-5.10;100.00
8334;BME280;4204;43.004;23.052;2023-02-12T01:32:18;94685.75;;;-5.23;100.00
8334;BME280;4204;43.004;23.052;2023-02-12T01:34:46;94691.84;;;-5.50;100.00
8334;BME280;4204;43.004;23.052;2023-02-12T01:37:14;94694.22;;;-6.02;100.00
8334;BME280;4204;43.004;23.052;2023-02-12T01:39:41;94696.00;;;-6.30;100.00
8334;BME280;4204;43.004;23.052;2023-02-12T01:42:09;94702.69;;;-6.15;100.00
8334;BME280;4204;43.004;23.052;2023-02-12T01:44:42;94701.50;;;-6.40;100.00
8334;BME280;4204;43.004;23.052;2023-02-12T01:47:16;94699.50;;;-6.10;100.00
8334;BME280;4204;43.004;23.052;2023-02-12T01:49:46;94698.38;;;-6.01;100.00
8334;BME280;4204;43.004;23.052;2023-02-12T01:52:17;94692.28;;;-6.21;100.00
8334;BME280;4204;43.004;23.052;2023-02-12T01:54:47;94697.13;;;-6.12;100.00
8334;BME280;4204;43.004;23.052;2023-02-12T01:57:17;94694.88;;;-5.87;100.00
8334;BME280;4204;43.004;23.052;2023-02-12T01:59:47;94704.81;;;-5.91;100.00
8334;BME280;4204;43.004;23.052;2023-02-12T02:02:18;94681.66;;;-5.99;100.00
8334;BME280;4204;43.004;23.052;2023-02-12T02:04:52;94682.34;;;-6.18;100.00
8334;BME280;4204;43.004;23.052;2023-02-12T02:07:21;94682.00;;;-6.08;100.00
8334;BME280;4204;43.004;23.052;2023-02-12T02:09:49;94670.59;;;-5.80;100.00
8334;BME280;4204;43.004;23.052;2023-02-12T02:12:17;94670.78;;;-5.75;100.00
8334;BME280;4204;43.004;23.052;2023-02-12T02:15:04;94685.19;;;-5.65;100.00
8334;BME280;4204;43.004;23.052;2023-02-12T02:17:46;94675.41;;;-5.70;100.00
8334;BME280;4204;43.004;23.052;2023-02-12T02:20:58;94683.41;;;-5.58;100.00
8334;BME280;4204;43.004;23.052;2023-02-12T02:23:49;94666.97;;;-5.44;100.00
8334;BME280;4204;43.004;23.052;2023-02-12T02:29:43;94668.28;;;-5.61;100.00
8334;BME280;4204;43.004;23.052;2023-02-12T02:32:17;94655.22;;;-5.81;100.00
8334;BME280;4204;43.004;23.052;2023-02-12T02:34:54;94661.81;;;-5.85;100.00
8334;BME280;4204;43.004;23.052;2023-02-12T02:37:27;94665.03;;;-5.70;100.00
8334;BME280;4204;43.004;23.052;2023-02-12T02:40:00;94651.50;;;-5.72;100.00
8334;BME280;4204;43.004;23.052;2023-02-12T02:42:38;94664.59;;;-5.80;100.00
8334;BME280;4204;43.004;23.052;2023-02-12T02:45:10;94670.47;;;-5.65;100.00
8334;BME280;4204;43.004;23.052;2023-02-12T02:47:48;94668.13;;;-5.47;100.00
8334;BME280;4204;43.004;23.052;2023-02-12T02:50:20;94655.59;;;-5.37;100.00
8334;BME280;4204;43.004;23.052;2023-02-12T02:52:52;94647.06;;;-5.24;100.00
8334;BME280;4204;43.004;23.052;2023-02-12T02:55:25;94650.88;;;-5.20;100.00
8334;BME280;4204;43.004;23.052;2023-02-12T02:57:57;94653.41;;;-5.46;100.00
8334;BME280;4204;43.004;23.052;2023-02-12T03:00:31;94646.25;;;-5.31;100.00
8334;BME280;4204;43.004;23.052;2023-02-12T03:03:08;94658.19;;;-5.37;100.00
8334;BME280;4204;43.004;23.052;2023-02-12T03:05:40;94652.59;;;-5.47;100.00
8334;BME280;4204;43.004;23.052;2023-02-12T03:08:11;94647.88;;;-5.24;100.00
8334;BME280;4204;43.004;23.052;2023-02-12T03:10:43;94651.06;;;-5.09;100.00
8334;BME280;4204;43.004;23.052;2023-02-12T03:13:16;94648.09;;;-5.12;100.00
8334;BME280;4204;43.004;23.052;2023-02-12T03:15:48;94651.50;;;-4.92;100.00
8334;BME280;4204;43.004;23.052;2023-02-12T03:18:22;94620.97;;;-4.90;100.00
8334;BME280;4204;43.004;23.052;2023-02-12T03:20:53;94644.34;;;-4.70;100.00
8334;BME280;4204;43.004;23.052;2023-02-12T03:23:25;94633.38;;;-4.66;100.00
8334;BME280;4204;43.004;23.052;2023-02-12T03:25:57;94633.16;;;-4.64;100.00
8334;BME280;4204;43.004;23.052;2023-02-12T03:28:28;94639.75;;;-4.62;100.00
8334;BME280;4204;43.004;23.052;2023-02-12T03:31:02;94639.13;;;-4.51;100.00
8334;BME280;4204;43.004;23.052;2023-02-12T03:33:41;94639.16;;;-4.38;100.00
8334;BME280;4204;43.004;23.052;2023-02-12T03:36:22;94634.56;;;-4.42;100.00
8334;BME280;4204;43.004;23.052;2023-02-12T03:38:53;94625.94;;;-4.36;100.00
8334;BME280;4204;43.004;23.052;2023-02-12T03:41:24;94628.78;;;-4.57;100.00
8334;BME280;4204;43.004;23.052;2023-02-12T03:43:58;94636.38;;;-4.49;100.00
8334;BME280;4204;43.004;23.052;2023-02-12T03:46:38;94625.72;;;-4.15;100.00
8334;BME280;4204;43.004;23.052;2023-02-12T03:49:14;94626.31;;;-4.20;100.00
8334;BME280;4204;43.004;23.052;2023-02-12T03:51:46;94617.34;;;-4.17;100.00
8334;BME280;4204;43.004;23.052;2023-02-12T03:54:17;94621.69;;;-3.91;100.00
8334;BME280;4204;43.004;23.052;2023-02-12T03:56:49;94622.66;;;-3.86;100.00
8334;BME280;4204;43.004;23.052;2023-02-12T03:59:18;94629.84;;;-3.81;100.00
8334;BME280;4204;43.004;23.052;2023-02-12T04:01:47;94628.56;;;-3.66;100.00
8334;BME280;4204;43.004;23.052;2023-02-12T04:04:17;94623.19;;;-3.64;100.00
8334;BME280;4204;43.004;23.052;2023-02-12T04:06:47;94632.19;;;-3.67;100.00
8334;BME280;4204;43.004;23.052;2023-02-12T04:09:15;94624.50;;;-3.49;100.00
8334;BME280;4204;43.004;23.052;2023-02-12T04:11:53;94631.25;;;-3.35;100.00
8334;BME280;4204;43.004;23.052;2023-02-12T04:14:27;94635.06;;;-3.37;100.00
8334;BME280;4204;43.004;23.052;2023-02-12T04:16:59;94639.22;;;-3.23;100.00
8334;BME280;4204;43.004;23.052;2023-02-12T04:19:36;94635.00;;;-3.24;100.00
8334;BME280;4204;43.004;23.052;2023-02-12T04:22:15;94632.50;;;-3.44;100.00
8334;BME280;4204;43.004;23.052;2023-02-12T04:24:49;94649.22;;;-3.27;100.00
8334;BME280;4204;43.004;23.052;2023-02-12T04:27:25;94638.41;;;-3.23;100.00
8334;BME280;4204;43.004;23.052;2023-02-12T04:30:02;94643.59;;;-3.23;100.00
8334;BME280;4204;43.004;23.052;2023-02-12T04:32:36;94650.75;;;-3.12;100.00
8334;BME280;4204;43.004;23.052;2023-02-12T04:35:10;94664.69;;;-3.00;100.00
8334;BME280;4204;43.004;23.052;2023-02-12T04:37:44;94656.69;;;-2.99;100.00
8334;BME280;4204;43.004;23.052;2023-02-12T04:40:16;94654.63;;;-2.90;100.00
8334;BME280;4204;43.004;23.052;2023-02-12T04:42:46;94667.38;;;-2.82;100.00
8334;BME280;4204;43.004;23.052;2023-02-12T04:45:18;94665.63;;;-2.88;100.00
8334;BME280;4204;43.004;23.052;2023-02-12T04:47:47;94660.25;;;-2.93;100.00
8334;BME280;4204;43.004;23.052;2023-02-12T04:50:16;94669.44;;;-2.91;100.00
8334;BME280;4204;43.004;23.052;2023-02-12T04:52:44;94668.03;;;-2.93;100.00
8334;BME280;4204;43.004;23.052;2023-02-12T04:55:13;94667.16;;;-2.81;100.00
8334;BME280;4204;43.004;23.052;2023-02-12T04:57:40;94670.84;;;-2.88;100.00
8334;BME280;4204;43.004;23.052;2023-02-12T05:00:12;94685.69;;;-2.64;100.00
8334;BME280;4204;43.004;23.052;2023-02-12T05:02:40;94680.34;;;-2.69;100.00
8334;BME280;4204;43.004;23.052;2023-02-12T05:05:08;94673.94;;;-2.73;100.00
8334;BME280;4204;43.004;23.052;2023-02-12T05:07:37;94684.28;;;-2.67;100.00
8334;BME280;4204;43.004;23.052;2023-02-12T05:10:06;94683.25;;;-2.59;100.00
8334;BME280;4204;43.004;23.052;2023-02-12T05:12:34;94670.06;;;-2.64;100.00
8334;BME280;4204;43.004;23.052;2023-02-12T05:15:02;94681.03;;;-2.56;100.00
8334;BME280;4204;43.004;23.052;2023-02-12T05:17:30;94682.19;;;-2.52;100.00
8334;BME280;4204;43.004;23.052;2023-02-12T05:19:57;94678.34;;;-2.42;100.00
8334;BME280;4204;43.004;23.052;2023-02-12T05:22:25;94680.31;;;-2.38;100.00
8334;BME280;4204;43.004;23.052;2023-02-12T05:24:54;94677.94;;;-2.21;100.00
8334;BME280;4204;43.004;23.052;2023-02-12T05:27:22;94671.22;;;-2.29;100.00
8334;BME280;4204;43.004;23.052;2023-02-12T05:29:50;94671.38;;;-2.24;100.00
8334;BME280;4204;43.004;23.052;2023-02-12T05:32:17;94685.34;;;-2.18;100.00
8334;BME280;4204;43.004;23.052;2023-02-12T05:34:45;94677.34;;;-1.74;100.00
8334;BME280;4204;43.004;23.052;2023-02-12T05:37:13;94692.19;;;-1.75;100.00
8334;BME280;4204;43.004;23.052;2023-02-12T05:39:41;94700.88;;;-1.81;100.00
8334;BME280;4204;43.004;23.052;2023-02-12T05:42:10;94686.38;;;-1.40;100.00
8334;BME280;4204;43.004;23.052;2023-02-12T05:44:38;94694.09;;;-1.45;100.00
8334;BME280;4204;43.004;23.052;2023-02-12T05:47:06;94688.34;;;-1.54;100.00
8334;BME280;4204;43.004;23.052;2023-02-12T05:49:33;94695.66;;;-1.63;100.00
8334;BME280;4204;43.004;23.052;2023-02-12T05:52:01;94697.38;;;-1.75;100.00
8334;BME280;4204;43.004;23.052;2023-02-12T05:54:29;94691.38;;;-1.75;100.00
8334;BME280;4204;43.004;23.052;2023-02-12T05:56:57;94698.63;;;-1.77;100.00
8334;BME280;4204;43.004;23.052;2023-02-12T05:59:26;94701.91;;;-1.63;100.00
8334;BME280;4204;43.004;23.052;2023-02-12T06:01:54;94701.31;;;-1.66;100.00
8334;BME280;4204;43.004;23.052;2023-02-12T06:04:23;94703.66;;;-1.57;100.00
8334;BME280;4204;43.004;23.052;2023-02-12T06:06:52;94702.19;;;-1.53;100.00
8334;BME280;4204;43.004;23.052;2023-02-12T06:09:21;94707.53;;;-1.48;100.00
8334;BME280;4204;43.004;23.052;2023-02-12T06:11:50;94705.69;;;-1.41;100.00
8334;BME280;4204;43.004;23.052;2023-02-12T06:14:19;94713.50;;;-1.41;100.00
8334;BME280;4204;43.004;23.052;2023-02-12T06:16:50;94710.25;;;-1.37;100.00
8334;BME280;4204;43.004;23.052;2023-02-12T06:19:18;94703.88;;;-1.41;100.00
8334;BME280;4204;43.004;23.052;2023-02-12T06:21:47;94698.66;;;-1.41;100.00
8334;BME280;4204;43.004;23.052;2023-02-12T06:24:16;94709.56;;;-1.32;100.00
8334;BME280;4204;43.004;23.052;2023-02-12T06:26:44;94716.41;;;-1.31;100.00
8334;BME280;4204;43.004;23.052;2023-02-12T06:29:12;94717.50;;;-1.21;100.00
8334;BME280;4204;43.004;23.052;2023-02-12T06:31:40;94719.28;;;-1.21;100.00
8334;BME280;4204;43.004;23.052;2023-02-12T06:34:10;94725.81;;;-1.12;100.00
8334;BME280;4204;43.004;23.052;2023-02-12T06:36:41;94713.78;;;-1.13;100.00
8334;BME280;4204;43.004;23.052;2023-02-12T06:39:11;94725.25;;;-1.14;100.00
8334;BME280;4204;43.004;23.052;2023-02-12T06:41:39;94724.66;;;-1.16;100.00
8334;BME280;4204;43.004;23.052;2023-02-12T06:44:07;94723.22;;;-1.12;100.00
8334;BME280;4204;43.004;23.052;2023-02-12T06:46:36;94714.94;;;-1.09;100.00
8334;BME280;4204;43.004;23.052;2023-02-12T06:49:04;94721.38;;;-1.12;100.00
8334;BME280;4204;43.004;23.052;2023-02-12T06:51:33;94721.31;;;-1.05;100.00
8334;BME280;4204;43.004;23.052;2023-02-12T06:54:03;94720.53;;;-1.06;100.00
8334;BME280;4204;43.004;23.052;2023-02-12T06:56:31;94715.31;;;-1.06;100.00
8334;BME280;4204;43.004;23.052;2023-02-12T06:58:59;94721.59;;;-0.95;100.00
8334;BME280;4204;43.004;23.052;2023-02-12T07:01:28;94723.91;;;-0.87;100.00
8334;BME280;4204;43.004;23.052;2023-02-12T07:03:58;94726.78;;;-0.77;100.00
8334;BME280;4204;43.004;23.052;2023-02-12T07:06:28;94718.25;;;-0.84;100.00
8334;BME280;4204;43.004;23.052;2023-02-12T07:08:58;94715.06;;;-0.86;100.00
8334;BME280;4204;43.004;23.052;2023-02-12T07:11:27;94726.88;;;-0.84;100.00
8334;BME280;4204;43.004;23.052;2023-02-12T07:13:56;94729.84;;;-0.80;100.00
8334;BME280;4204;43.004;23.052;2023-02-12T07:16:24;94739.41;;;-0.74;100.00
8334;BME280;4204;43.004;23.052;2023-02-12T07:18:52;94741.69;;;-0.66;100.00
8334;BME280;4204;43.004;23.052;2023-02-12T07:21:20;94737.63;;;-0.62;100.00
8334;BME280;4204;43.004;23.052;2023-02-12T07:23:49;94737.63;;;-0.62;100.00
8334;BME280;4204;43.004;23.052;2023-02-12T07:26:19;94727.19;;;-0.62;100.00
8334;BME280;4204;43.004;23.052;2023-02-12T07:28:47;94731.97;;;-0.59;100.00
8334;BME280;4204;43.004;23.052;2023-02-12T07:31:18;94733.84;;;-0.48;100.00
8334;BME280;4204;43.004;23.052;2023-02-12T07:33:46;94733.56;;;-0.58;100.00
8334;BME280;4204;43.004;23.052;2023-02-12T07:36:16;94729.94;;;-0.57;100.00
8334;BME280;4204;43.004;23.052;2023-02-12T07:38:44;94739.66;;;-0.46;100.00
8334;BME280;4204;43.004;23.052;2023-02-12T07:41:13;94744.56;;;-0.38;100.00
8334;BME280;4204;43.004;23.052;2023-02-12T07:43:45;94740.69;;;-0.35;100.00
8334;BME280;4204;43.004;23.052;2023-02-12T07:46:14;94742.94;;;-0.39;100.00
8334;BME280;4204;43.004;23.052;2023-02-12T07:48:43;94738.94;;;-0.41;100.00
8334;BME280;4204;43.004;23.052;2023-02-12T07:51:13;94744.66;;;-0.33;100.00
8334;BME280;4204;43.004;23.052;2023-02-12T07:53:42;94735.59;;;-0.30;100.00
8334;BME280;4204;43.004;23.052;2023-02-12T07:56:11;94726.94;;;-0.31;100.00
8334;BME280;4204;43.004;23.052;2023-02-12T07:58:41;94755.16;;;-0.21;100.00
8334;BME280;4204;43.004;23.052;2023-02-12T08:01:16;94754.03;;;-0.14;100.00
8334;BME280;4204;43.004;23.052;2023-02-12T08:03:45;94756.09;;;-0.16;100.00
8334;BME280;4204;43.004;23.052;2023-02-12T08:06:14;94764.66;;;-0.09;100.00
8334;BME280;4204;43.004;23.052;2023-02-12T08:08:43;94773.97;;;-0.01;100.00
8334;BME280;4204;43.004;23.052;2023-02-12T08:11:12;94778.06;;;0.07;100.00
8334;BME280;4204;43.004;23.052;2023-02-12T08:13:41;94772.25;;;0.05;100.00
8334;BME280;4204;43.004;23.052;2023-02-12T08:16:10;94766.72;;;0.13;100.00
8334;BME280;4204;43.004;23.052;2023-02-12T08:18:40;94766.13;;;0.11;100.00
8334;BME280;4204;43.004;23.052;2023-02-12T08:21:11;94764.66;;;0.15;100.00
8334;BME280;4204;43.004;23.052;2023-02-12T08:23:39;94774.47;;;0.19;100.00
8334;BME280;4204;43.004;23.052;2023-02-12T08:26:09;94768.31;;;0.25;100.00
8334;BME280;4204;43.004;23.052;2023-02-12T08:28:40;94760.59;;;0.30;100.00
8334;BME280;4204;43.004;23.052;2023-02-12T08:31:11;94760.84;;;0.29;100.00
8334;BME280;4204;43.004;23.052;2023-02-12T08:33:43;94764.94;;;0.36;100.00
8334;BME280;4204;43.004;23.052;2023-02-12T08:36:13;94775.72;;;0.40;100.00
8334;BME280;4204;43.004;23.052;2023-02-12T08:38:42;94781.56;;;0.53;100.00
8334;BME280;4204;43.004;23.052;2023-02-12T08:41:12;94777.00;;;0.60;100.00
8334;BME280;4204;43.004;23.052;2023-02-12T08:43:41;94783.59;;;0.63;100.00
8334;BME280;4204;43.004;23.052;2023-02-12T08:46:11;94775.97;;;0.73;100.00
8334;BME280;4204;43.004;23.052;2023-02-12T08:48:42;94781.78;;;0.75;100.00
8334;BME280;4204;43.004;23.052;2023-02-12T08:51:12;94785.09;;;0.82;100.00
8334;BME280;4204;43.004;23.052;2023-02-12T08:53:42;94781.66;;;0.81;100.00
8334;BME280;4204;43.004;23.052;2023-02-12T08:56:12;94790.66;;;0.86;100.00
8334;BME280;4204;43.004;23.052;2023-02-12T08:58:41;94798.84;;;0.89;100.00
8334;BME280;4204;43.004;23.052;2023-02-12T09:01:10;94789.72;;;0.92;100.00
8334;BME280;4204;43.004;23.052;2023-02-12T09:03:39;94802.03;;;0.91;100.00
8334;BME280;4204;43.004;23.052;2023-02-12T09:06:08;94804.88;;;1.01;100.00
8334;BME280;4204;43.004;23.052;2023-02-12T09:08:37;94814.53;;;1.12;100.00
8334;BME280;4204;43.004;23.052;2023-02-12T09:11:06;94818.75;;;1.13;100.00
8334;BME280;4204;43.004;23.052;2023-02-12T09:13:35;94815.78;;;1.10;100.00
8334;BME280;4204;43.004;23.052;2023-02-12T09:16:03;94818.19;;;1.11;100.00
8334;BME280;4204;43.004;23.052;2023-02-12T09:18:32;94820.34;;;1.14;100.00
8334;BME280;4204;43.004;23.052;2023-02-12T09:21:02;94815.09;;;1.14;100.00
8334;BME280;4204;43.004;23.052;2023-02-12T09:23:31;94829.13;;;1.20;100.00
8334;BME280;4204;43.004;23.052;2023-02-12T09:26:02;94824.78;;;1.25;100.00
8334;BME280;4204;43.004;23.052;2023-02-12T09:28:30;94832.63;;;1.25;100.00
8334;BME280;4204;43.004;23.052;2023-02-12T09:30:58;94840.59;;;1.42;100.00
8334;BME280;4204;43.004;23.052;2023-02-12T09:33:30;94832.03;;;1.46;100.00
8334;BME280;4204;43.004;23.052;2023-02-12T09:36:00;94828.44;;;1.64;100.00
8334;BME280;4204;43.004;23.052;2023-02-12T09:38:28;94825.31;;;1.50;100.00
8334;BME280;4204;43.004;23.052;2023-02-12T09:44:00;94821.84;;;1.61;100.00
8334;BME280;4204;43.004;23.052;2023-02-12T09:46:33;94831.09;;;1.52;100.00
8334;BME280;4204;43.004;23.052;2023-02-12T09:49:08;94834.19;;;1.49;100.00
8334;BME280;4204;43.004;23.052;2023-02-12T09:51:39;94831.22;;;1.46;100.00
8334;BME280;4204;43.004;23.052;2023-02-12T09:54:13;94829.94;;;1.60;100.00
8334;BME280;4204;43.004;23.052;2023-02-12T09:56:48;94818.94;;;1.75;100.00
8334;BME280;4204;43.004;23.052;2023-02-12T09:59:22;94833.66;;;1.76;100.00
8334;BME280;4204;43.004;23.052;2023-02-12T10:01:56;94827.25;;;1.83;100.00
8334;BME280;4204;43.004;23.052;2023-02-12T10:04:26;94835.69;;;1.85;100.00
8334;BME280;4204;43.004;23.052;2023-02-12T10:07:02;94836.66;;;1.96;100.00
8334;BME280;4204;43.004;23.052;2023-02-12T10:09:44;94830.84;;;1.94;100.00
8334;BME280;4204;43.004;23.052;2023-02-12T10:12:20;94825.38;;;1.95;100.00
8334;BME280;4204;43.004;23.052;2023-02-12T10:15:04;94831.59;;;2.06;100.00
8334;BME280;4204;43.004;23.052;2023-02-12T10:17:39;94833.22;;;2.07;100.00
8334;BME280;4204;43.004;23.052;2023-02-12T10:20:45;94826.34;;;2.06;100.00
8334;BME280;4204;43.004;23.052;2023-02-12T10:23:34;94826.50;;;1.99;100.00
8334;BME280;4204;43.004;23.052;2023-02-12T10:26:12;94837.13;;;1.93;100.00
8334;BME280;4204;43.004;23.052;2023-02-12T10:28:45;94837.47;;;1.96;100.00
8334;BME280;4204;43.004;23.052;2023-02-12T10:31:18;94834.72;;;2.03;100.00
8334;BME280;4204;43.004;23.052;2023-02-12T10:33:49;94834.84;;;1.96;100.00
8334;BME280;4204;43.004;23.052;2023-02-12T10:36:28;94841.34;;;1.94;100.00
8334;BME280;4204;43.004;23.052;2023-02-12T10:39:01;94849.31;;;1.99;100.00
8334;BME280;4204;43.004;23.052;2023-02-12T10:41:31;94836.91;;;1.94;100.00
8334;BME280;4204;43.004;23.052;2023-02-12T10:44:01;94830.63;;;1.95;100.00
8334;BME280;4204;43.004;23.052;2023-02-12T10:46:29;94842.00;;;2.01;100.00
8334;BME280;4204;43.004;23.052;2023-02-12T10:48:59;94847.44;;;2.11;100.00
8334;BME280;4204;43.004;23.052;2023-02-12T10:51:37;94855.63;;;2.14;100.00
8334;BME280;4204;43.004;23.052;2023-02-12T10:54:30;94858.50;;;2.13;100.00
8334;BME280;4204;43.004;23.052;2023-02-12T10:56:58;94852.44;;;2.12;100.00
8334;BME280;4204;43.004;23.052;2023-02-12T10:59:28;94858.88;;;2.05;100.00
8334;BME280;4204;43.004;23.052;2023-02-12T11:01:56;94841.81;;;1.91;100.00
8334;BME280;4204;43.004;23.052;2023-02-12T11:04:26;94843.50;;;1.97;100.00
8334;BME280;4204;43.004;23.052;2023-02-12T11:06:57;94847.16;;;1.96;100.00
8334;BME280;4204;43.004;23.052;2023-02-12T11:09:29;94855.22;;;2.06;100.00
8334;BME280;4204;43.004;23.052;2023-02-12T11:12:00;94865.59;;;2.01;100.00
8334;BME280;4204;43.004;23.052;2023-02-12T11:14:30;94872.69;;;2.00;100.00
8334;BME280;4204;43.004;23.052;2023-02-12T11:16:59;94877.38;;;1.98;100.00
8334;BME280;4204;43.004;23.052;2023-02-12T11:19:29;94875.53;;;1.99;100.00
8334;BME280;4204;43.004;23.052;2023-02-12T11:22:05;94868.00;;;2.02;100.00
8334;BME280;4204;43.004;23.052;2023-02-12T11:24:35;94881.03;;;1.97;100.00
8334;BME280;4204;43.004;23.052;2023-02-12T11:27:21;94888.38;;;2.12;100.00
8334;BME280;4204;43.004;23.052;2023-02-12T11:30:15;94892.44;;;2.19;100.00
8334;BME280;4204;43.004;23.052;2023-02-12T11:32:43;94896.81;;;2.14;100.00
8334;BME280;4204;43.004;23.052;2023-02-12T11:35:14;94888.50;;;2.17;100.00
8334;BME280;4204;43.004;23.052;2023-02-12T11:37:45;94889.44;;;2.11;100.00
8334;BME280;4204;43.004;23.052;2023-02-12T11:40:17;94888.38;;;2.12;100.00
8334;BME280;4204;43.004;23.052;2023-02-12T11:42:48;94897.94;;;2.18;100.00
8334;BME280;4204;43.004;23.052;2023-02-12T11:45:20;94886.50;;;2.24;100.00
8334;BME280;4204;43.004;23.052;2023-02-12T11:47:49;94893.03;;;2.21;100.00
8334;BME280;4204;43.004;23.052;2023-02-12T11:50:24;94890.63;;;2.20;100.00
8334;BME280;4204;43.004;23.052;2023-02-12T11:52:56;94897.50;;;2.21;100.00
8334;BME280;4204;43.004;23.052;2023-02-12T11:55:27;94889.69;;;2.26;100.00
8334;BME280;4204;43.004;23.052;2023-02-12T11:58:01;94881.44;;;2.34;100.00
8334;BME280;4204;43.004;23.052;2023-02-12T12:00:34;94871.56;;;2.24;100.00
8334;BME280;4204;43.004;23.052;2023-02-12T12:03:12;94869.91;;;2.35;100.00
8334;BME280;4204;43.004;23.052;2023-02-12T12:05:44;94870.03;;;2.40;100.00
8334;BME280;4204;43.004;23.052;2023-02-12T12:08:19;94860.44;;;2.34;100.00
8334;BME280;4204;43.004;23.052;2023-02-12T12:10:53;94845.81;;;2.38;100.00
8334;BME280;4204;43.004;23.052;2023-02-12T12:13:26;94853.59;;;2.33;100.00
8334;BME280;4204;43.004;23.052;2023-02-12T12:16:04;94862.47;;;2.43;100.00
8334;BME280;4204;43.004;23.052;2023-02-12T12:18:54;94867.94;;;2.42;100.00
8334;BME280;4204;43.004;23.052;2023-02-12T12:21:45;94854.91;;;2.47;100.00
8334;BME280;4204;43.004;23.052;2023-02-12T12:24:18;94856.56;;;2.53;100.00
8334;BME280;4204;43.004;23.052;2023-02-12T12:26:52;94863.19;;;2.56;100.00
8334;BME280;4204;43.004;23.052;2023-02-12T12:29:44;94862.22;;;2.62;100.00
8334;BME280;4204;43.004;23.052;2023-02-12T12:32:19;94865.97;;;2.66;100.00
8334;BME280;4204;43.004;23.052;2023-02-12T12:34:47;94873.69;;;2.72;100.00
8334;BME280;4204;43.004;23.052;2023-02-12T12:37:21;94882.94;;;2.91;100.00
8334;BME280;4204;43.004;23.052;2023-02-12T12:40:06;94871.38;;;2.92;100.00
8334;BME280;4204;43.004;23.052;2023-02-12T12:43:09;94884.88;;;2.96;100.00
8334;BME280;4204;43.004;23.052;2023-02-12T12:48:54;94883.50;;;2.77;100.00
8334;BME280;4204;43.004;23.052;2023-02-12T12:51:35;94888.50;;;2.78;100.00
8334;BME280;4204;43.004;23.052;2023-02-12T12:54:20;94886.19;;;2.82;100.00
8334;BME280;4204;43.004;23.052;2023-02-12T12:56:59;94878.56;;;2.80;100.00
8334;BME280;4204;43.004;23.052;2023-02-12T13:03:08;94882.47;;;2.94;100.00
8334;BME280;4204;43.004;23.052;2023-02-12T13:11:56;94885.56;;;2.91;100.00
8334;BME280;4204;43.004;23.052;2023-02-12T13:14:38;94898.72;;;2.91;100.00
8334;BME280;4204;43.004;23.052;2023-02-12T13:17:15;94896.66;;;2.93;100.00
8334;BME280;4204;43.004;23.052;2023-02-12T13:19:54;94897.25;;;3.00;100.00
8334;BME280;4204;43.004;23.052;2023-02-12T13:22:30;94902.91;;;3.09;100.00
8334;BME280;4204;43.004;23.052;2023-02-12T13:25:06;94901.41;;;3.13;100.00
8334;BME280;4204;43.004;23.052;2023-02-12T13:27:45;94910.25;;;3.07;100.00
8334;BME280;4204;43.004;23.052;2023-02-12T13:30:19;94920.06;;;3.11;100.00
8334;BME280;4204;43.004;23.052;2023-02-12T13:32:50;94914.00;;;3.11;100.00
8334;BME280;4204;43.004;23.052;2023-02-12T13:35:23;94917.31;;;3.06;100.00
8334;BME280;4204;43.004;23.052;2023-02-12T13:37:53;94924.91;;;3.03;100.00
8334;BME280;4204;43.004;23.052;2023-02-12T13:40:24;94924.19;;;3.07;100.00
8334;BME280;4204;43.004;23.052;2023-02-12T13:42:58;94929.28;;;3.14;100.00
8334;BME280;4204;43.004;23.052;2023-02-12T13:45:40;94924.19;;;3.07;100.00
8334;BME280;4204;43.004;23.052;2023-02-12T13:48:31;94935.09;;;3.16;100.00